Time;durP1;ratioP1;P1;durP2;ratioP2;P2;SDS_P1;SDS_P2;PMS_P1;PMS_P2;Temp;Humidity;BMP_temperature;BMP_pressure;BME280_temperature;BME280_humidity;BME280_pressure;Samples;Min_cycle;Max_cycle;Signal;HPM_P1;HPM_P2
2023/11/08 00:00:03;;;;;;;5.00;1.23;;;8.60;99.90;;;;;;5016395;28;20433;-78
2023/11/08 00:02:30;;;;;;;6.30;1.40;;;8.60;99.90;;;;;;5016335;28;20440;-79
2023/11/08 00:04:56;;;;;;;4.93;1.00;;;8.70;99.90;;;;;;5006124;28;20391;-78
2023/11/08 00:07:23;;;;;;;2.10;1.20;;;8.70;99.90;;;;;;5021937;28;20085;-79
2023/11/08 00:09:50;;;;;;;4.05;1.52;;;8.70;99.90;;;;;;5020052;28;20521;-79
2023/11/08 00:12:17;;;;;;;4.40;1.20;;;8.70;99.90;;;;;;5016265;28;20112;-78
2023/11/08 00:14:45;;;;;;;4.00;1.15;;;8.70;99.90;;;;;;5014369;28;20046;-79
2023/11/08 00:17:16;;;;;;;5.20;0.90;;;8.80;99.90;;;;;;5011882;28;20046;-79
2023/11/08 00:19:43;;;;;;;6.10;1.00;;;8.80;99.90;;;;;;5012807;28;20460;-79
2023/11/08 00:22:11;;;;;;;2.03;0.70;;;8.80;99.90;;;;;;5004272;28;20050;-79
2023/11/08 00:24:38;;;;;;;8.68;1.02;;;8.80;99.90;;;;;;5019725;28;20048;-79
2023/11/08 00:27:05;;;;;;;5.85;1.50;;;8.80;99.90;;;;;;5012997;28;20049;-78
2023/11/08 00:29:31;;;;;;;3.90;1.00;;;8.80;99.90;;;;;;5000627;28;20171;-78
2023/11/08 00:31:58;;;;;;;2.30;0.77;;;8.70;99.90;;;;;;5006868;28;20042;-78
2023/11/08 00:34:25;;;;;;;4.35;0.82;;;8.70;99.90;;;;;;5015895;28;20133;-79
2023/11/08 00:36:52;;;;;;;4.18;1.52;;;8.70;99.90;;;;;;5024335;28;20060;-79
2023/11/08 00:39:19;;;;;;;3.45;1.02;;;8.70;99.90;;;;;;5004452;28;20054;-79
2023/11/08 00:41:46;;;;;;;3.53;1.10;;;8.60;99.90;;;;;;4999372;28;20050;-79
2023/11/08 00:44:13;;;;;;;6.13;1.13;;;8.60;99.90;;;;;;5010807;28;20046;-79
2023/11/08 00:46:40;;;;;;;6.47;1.25;;;8.60;99.90;;;;;;5009978;28;20042;-79
2023/11/08 00:49:07;;;;;;;3.88;0.82;;;8.60;99.90;;;;;;5001886;28;20045;-79
2023/11/08 00:51:35;;;;;;;5.15;1.00;;;8.60;99.90;;;;;;5022588;28;20038;-78
2023/11/08 00:54:02;;;;;;;3.03;1.30;;;8.60;99.90;;;;;;5016134;28;20052;-78
2023/11/08 00:56:29;;;;;;;5.45;1.45;;;8.60;99.90;;;;;;5013512;28;20112;-78
2023/11/08 00:58:56;;;;;;;1.90;0.88;;;8.60;99.90;;;;;;5009300;28;20521;-78
2023/11/08 01:01:22;;;;;;;5.30;1.13;;;8.60;99.90;;;;;;5006035;28;20050;-78
2023/11/08 01:03:50;;;;;;;2.42;0.85;;;8.60;99.90;;;;;;5016810;28;20386;-79
2023/11/08 01:06:17;;;;;;;3.70;1.20;;;8.60;99.90;;;;;;5003181;28;20069;-79
2023/11/08 01:08:44;;;;;;;1.80;1.20;;;8.50;99.90;;;;;;5017877;28;20076;-78
2023/11/08 01:11:11;;;;;;;3.70;0.98;;;8.50;99.90;;;;;;5011946;28;20053;-79
2023/11/08 01:13:38;;;;;;;4.38;1.33;;;8.50;99.90;;;;;;5011098;28;20068;-79
2023/11/08 01:16:07;;;;;;;4.95;1.50;;;8.50;99.90;;;;;;4995476;28;20053;-78
2023/11/08 01:18:34;;;;;;;5.00;1.13;;;8.40;99.90;;;;;;5005598;28;20537;-78
2023/11/08 01:21:02;;;;;;;3.42;0.98;;;8.40;99.90;;;;;;5017700;28;20088;-78
2023/11/08 01:23:29;;;;;;;5.35;1.25;;;8.40;99.90;;;;;;5000032;28;20046;-79
2023/11/08 01:25:56;;;;;;;3.70;1.10;;;8.40;99.90;;;;;;5011472;28;20049;-78
2023/11/08 01:28:23;;;;;;;6.00;1.30;;;8.40;99.90;;;;;;4996710;28;20046;-79
2023/11/08 01:30:50;;;;;;;5.85;1.23;;;8.40;99.90;;;;;;5010486;28;20037;-79
2023/11/08 01:33:17;;;;;;;6.80;1.20;;;8.40;99.90;;;;;;5004569;28;20056;-79
2023/11/08 01:35:44;;;;;;;2.80;0.95;;;8.40;99.90;;;;;;5004330;28;20046;-79
2023/11/08 01:38:12;;;;;;;4.00;1.58;;;8.40;99.90;;;;;;5014596;28;20053;-78
2023/11/08 01:40:43;;;;;;;9.15;2.08;;;8.40;99.90;;;;;;5002445;28;20045;-79
2023/11/08 01:43:28;;;;;;;5.60;0.82;;;8.40;99.90;;;;;;5008129;28;20045;-79
2023/11/08 01:46:14;;;;;;;3.03;1.13;;;8.50;99.90;;;;;;5017460;28;20041;-79
2023/11/08 01:48:41;;;;;;;2.63;0.95;;;8.50;99.90;;;;;;5023987;28;20038;-79
2023/11/08 01:51:10;;;;;;;4.32;1.00;;;8.50;99.90;;;;;;5020225;28;20038;-79
2023/11/08 01:53:42;;;;;;;4.00;1.00;;;8.50;99.90;;;;;;5019687;28;20072;-79
2023/11/08 01:56:13;;;;;;;5.55;1.20;;;8.50;99.90;;;;;;5008401;28;20052;-79
2023/11/08 01:58:41;;;;;;;6.32;1.25;;;8.50;99.90;;;;;;5007244;28;20046;-78
2023/11/08 02:01:10;;;;;;;5.28;1.10;;;8.50;99.90;;;;;;5018418;28;20703;-79
2023/11/08 02:03:38;;;;;;;4.50;1.27;;;8.50;99.90;;;;;;5004195;28;20049;-79
2023/11/08 02:06:07;;;;;;;3.85;1.17;;;8.50;99.90;;;;;;5014800;28;20425;-79
2023/11/08 02:08:35;;;;;;;2.58;0.98;;;8.50;99.90;;;;;;5012351;28;20046;-79
2023/11/08 02:11:03;;;;;;;3.45;1.40;;;8.50;99.90;;;;;;5008268;28;20100;-78
2023/11/08 02:13:33;;;;;;;2.60;1.00;;;8.50;99.90;;;;;;5004553;28;20050;-79
2023/11/08 02:16:00;;;;;;;5.43;1.55;;;8.50;99.90;;;;;;5021322;28;20041;-79
2023/11/08 02:18:30;;;;;;;5.05;1.45;;;8.50;99.90;;;;;;5017484;28;20518;-78
2023/11/08 02:20:58;;;;;;;;;;;8.50;99.90;;;;;;5015375;28;20064;-78
2023/11/08 02:23:25;;;;;;;6.50;1.20;;;8.50;99.90;;;;;;5009950;28;19929;-79
2023/11/08 02:25:53;;;;;;;6.22;1.45;;;8.40;99.90;;;;;;5004198;28;20046;-78
2023/11/08 02:28:21;;;;;;;4.03;1.50;;;8.40;99.90;;;;;;5010345;28;20121;-79
2023/11/08 02:30:53;;;;;;;3.17;1.25;;;8.40;99.90;;;;;;5018193;28;20052;-80
2023/11/08 02:33:22;;;;;;;5.43;1.27;;;8.40;99.90;;;;;;5010243;28;20045;-79
2023/11/08 02:35:49;;;;;;;3.90;1.52;;;8.40;99.90;;;;;;4993493;28;20076;-79
2023/11/08 02:38:16;;;;;;;4.70;1.25;;;8.50;99.90;;;;;;5008278;28;20421;-79
2023/11/08 02:40:43;;;;;;;8.70;1.15;;;8.50;99.90;;;;;;5012185;28;20050;-79
2023/11/08 02:43:11;;;;;;;3.78;1.20;;;8.50;99.90;;;;;;5009692;28;20038;-79
2023/11/08 02:45:38;;;;;;;4.10;1.20;;;8.50;99.90;;;;;;5020630;28;20047;-79
2023/11/08 02:48:06;;;;;;;8.20;1.30;;;8.50;99.90;;;;;;4994954;28;20069;-78
2023/11/08 02:50:38;;;;;;;4.22;1.15;;;8.50;99.90;;;;;;5012999;28;20105;-79
2023/11/08 02:53:05;;;;;;;4.15;1.60;;;8.60;99.90;;;;;;5009165;28;20056;-79
2023/11/08 02:55:33;;;;;;;5.75;1.70;;;8.60;99.90;;;;;;4994800;28;20112;-79
2023/11/08 02:58:00;;;;;;;3.90;1.10;;;8.60;99.90;;;;;;5004319;28;20045;-79
2023/11/08 03:00:27;;;;;;;2.88;1.13;;;8.60;99.90;;;;;;5017811;28;20058;-78
2023/11/08 03:02:54;;;;;;;3.80;1.30;;;8.60;99.90;;;;;;5016848;28;20157;-78
2023/11/08 03:05:22;;;;;;;6.90;1.45;;;8.60;99.90;;;;;;5011255;28;20061;-79
2023/11/08 03:07:51;;;;;;;3.47;1.40;;;8.70;99.90;;;;;;4997422;28;20042;-79
2023/11/08 03:10:19;;;;;;;1.83;1.02;;;8.70;99.90;;;;;;5003256;28;20045;-79
2023/11/08 03:12:47;;;;;;;3.55;1.10;;;8.70;99.90;;;;;;5023079;28;20104;-78
2023/11/08 03:15:16;;;;;;;4.80;1.33;;;8.70;99.90;;;;;;5013934;28;20046;-78
2023/11/08 03:17:44;;;;;;;4.82;1.27;;;8.70;99.90;;;;;;5009929;28;20081;-79
2023/11/08 03:20:15;;;;;;;3.53;1.35;;;8.70;99.90;;;;;;5011045;28;20152;-79
2023/11/08 03:22:43;;;;;;;3.75;1.30;;;8.70;99.90;;;;;;5008348;28;20042;-79
2023/11/08 03:25:11;;;;;;;6.03;1.40;;;8.70;99.90;;;;;;5000456;28;20041;-79
2023/11/08 03:27:46;;;;;;;3.00;1.27;;;8.70;99.90;;;;;;5020699;28;20046;-79
2023/11/08 03:30:15;;;;;;;4.88;1.15;;;8.70;99.90;;;;;;5013112;28;20045;-79
2023/11/08 03:32:43;;;;;;;4.72;1.15;;;8.70;99.90;;;;;;5021603;28;20049;-79
2023/11/08 03:35:11;;;;;;;4.43;1.35;;;8.70;99.90;;;;;;5010625;28;20048;-78
2023/11/08 03:37:39;;;;;;;2.42;1.10;;;8.70;99.90;;;;;;5009616;28;20046;-78
2023/11/08 03:40:11;;;;;;;4.28;1.33;;;8.70;99.90;;;;;;5020929;28;20505;-78
2023/11/08 03:42:39;;;;;;;5.72;1.40;;;8.70;99.90;;;;;;5007127;28;20056;-79
2023/11/08 03:45:08;;;;;;;3.60;1.25;;;8.60;99.90;;;;;;4999733;28;20038;-79
2023/11/08 03:47:36;;;;;;;4.38;1.27;;;8.60;99.90;;;;;;5017071;28;20050;-79
2023/11/08 03:50:03;;;;;;;4.00;1.63;;;8.60;99.90;;;;;;5012374;28;20048;-79
2023/11/08 03:52:30;;;;;;;3.25;1.30;;;8.60;99.90;;;;;;5007802;28;20046;-78
2023/11/08 03:54:57;;;;;;;6.05;1.33;;;8.60;99.90;;;;;;5020612;28;20037;-78
2023/11/08 03:57:24;;;;;;;2.40;1.25;;;8.60;99.90;;;;;;5020901;28;20501;-79
2023/11/08 03:59:53;;;;;;;3.45;1.17;;;8.60;99.90;;;;;;5012826;28;20069;-79
2023/11/08 04:02:21;;;;;;;3.47;1.27;;;8.60;99.90;;;;;;5001344;28;20037;-79
2023/11/08 04:04:48;;;;;;;4.05;1.30;;;8.50;99.90;;;;;;5001993;28;20099;-78
2023/11/08 04:07:15;;;;;;;3.90;1.50;;;8.40;99.90;;;;;;5008282;28;20042;-79
2023/11/08 04:09:43;;;;;;;6.22;1.25;;;8.40;99.90;;;;;;5006022;28;20046;-79
2023/11/08 04:12:11;;;;;;;3.50;1.65;;;8.30;99.90;;;;;;5022250;28;20049;-79
2023/11/08 04:14:39;;;;;;;4.35;1.38;;;8.30;99.90;;;;;;5018435;28;20062;-79
2023/11/08 04:17:08;;;;;;;3.35;1.00;;;8.30;99.90;;;;;;4994024;28;20073;-79
2023/11/08 04:19:36;;;;;;;6.18;1.40;;;8.20;99.90;;;;;;5010615;28;20050;-79
2023/11/08 04:22:05;;;;;;;5.70;1.33;;;8.30;99.90;;;;;;5014321;28;20053;-79
2023/11/08 04:24:33;;;;;;;5.28;1.23;;;8.30;99.90;;;;;;5026160;28;20046;-78
2023/11/08 04:27:02;;;;;;;4.30;1.30;;;8.30;99.90;;;;;;5010051;28;20065;-79
2023/11/08 04:29:31;;;;;;;4.40;1.10;;;8.30;99.90;;;;;;5019709;28;20046;-78
2023/11/08 04:31:58;;;;;;;3.78;1.30;;;8.30;99.90;;;;;;4998951;28;20727;-79
2023/11/08 04:34:24;;;;;;;7.05;1.50;;;8.30;99.90;;;;;;5009543;28;20486;-79
2023/11/08 04:36:51;;;;;;;4.72;1.33;;;8.40;99.90;;;;;;5012558;28;20091;-79
2023/11/08 04:39:21;;;;;;;2.55;1.15;;;8.40;99.90;;;;;;5001628;28;20050;-79
2023/11/08 04:41:49;;;;;;;2.70;1.40;;;8.40;99.90;;;;;;5020791;28;20077;-79
2023/11/08 04:44:16;;;;;;;5.30;1.75;;;8.40;99.90;;;;;;5015513;28;20108;-79
2023/11/08 04:46:43;;;;;;;4.25;1.40;;;8.40;99.90;;;;;;5012946;28;20142;-79
2023/11/08 04:49:11;;;;;;;5.07;1.30;;;8.40;99.90;;;;;;5008631;28;20042;-79
2023/11/08 04:51:39;;;;;;;2.00;0.98;;;8.40;99.90;;;;;;5003771;28;20046;-79
2023/11/08 04:54:06;;;;;;;5.07;1.92;;;8.40;99.90;;;;;;5005323;28;20049;-79
2023/11/08 04:56:33;;;;;;;2.45;1.10;;;8.40;99.90;;;;;;5016949;28;20123;-79
2023/11/08 04:58:59;;;;;;;4.38;1.00;;;8.30;99.90;;;;;;5016742;28;20154;-78
2023/11/08 05:01:28;;;;;;;4.03;1.13;;;8.30;99.90;;;;;;5009973;28;20505;-79
2023/11/08 05:03:57;;;;;;;4.15;1.30;;;8.20;99.90;;;;;;5009911;28;20132;-79
2023/11/08 05:06:23;;;;;;;1.90;1.15;;;8.20;99.90;;;;;;5019050;28;20104;-79
2023/11/08 05:08:50;;;;;;;3.55;1.35;;;8.20;99.90;;;;;;5022056;28;20046;-78
2023/11/08 05:11:17;;;;;;;3.33;1.60;;;8.20;99.90;;;;;;4994460;28;20073;-79
2023/11/08 05:13:45;;;;;;;3.45;1.40;;;8.30;99.90;;;;;;5014035;28;20090;-79
2023/11/08 05:16:13;;;;;;;4.40;1.48;;;8.30;99.90;;;;;;5000240;28;20046;-78
2023/11/08 05:18:40;;;;;;;3.47;1.27;;;8.30;99.90;;;;;;5007097;28;20050;-79
2023/11/08 05:21:12;;;;;;;3.95;1.50;;;8.40;99.90;;;;;;5024669;28;20052;-79
2023/11/08 05:23:38;;;;;;;3.45;1.20;;;8.40;99.90;;;;;;5003747;28;20100;-79
2023/11/08 05:26:06;;;;;;;7.68;1.08;;;8.40;99.90;;;;;;5000746;28;20123;-79
2023/11/08 05:28:33;;;;;;;3.78;1.20;;;8.50;99.90;;;;;;4999251;28;20449;-79
2023/11/08 05:30:59;;;;;;;2.55;1.48;;;8.50;99.90;;;;;;4994604;28;20054;-78
2023/11/08 05:33:26;;;;;;;3.78;1.38;;;8.50;99.90;;;;;;5005470;28;20050;-79
2023/11/08 05:35:53;;;;;;;5.97;1.90;;;8.50;99.90;;;;;;5020499;28;20156;-79
2023/11/08 05:38:20;;;;;;;2.88;1.00;;;8.50;99.90;;;;;;4998784;28;20042;-79
2023/11/08 05:40:47;;;;;;;2.97;1.13;;;8.60;99.90;;;;;;5002023;28;20066;-79
2023/11/08 05:43:13;;;;;;;4.28;1.00;;;8.60;99.90;;;;;;5000936;28;20089;-79
2023/11/08 05:45:40;;;;;;;2.58;1.00;;;8.60;99.90;;;;;;5009394;28;20050;-79
2023/11/08 05:48:07;;;;;;;2.75;1.20;;;8.60;99.90;;;;;;5012183;28;20050;-79
2023/11/08 05:50:34;;;;;;;3.88;1.02;;;8.70;99.90;;;;;;5020716;28;20042;-79
2023/11/08 05:53:00;;;;;;;4.15;1.40;;;8.70;99.90;;;;;;5012167;28;20045;-79
2023/11/08 05:55:27;;;;;;;3.30;1.08;;;8.70;99.90;;;;;;5014646;28;20053;-79
2023/11/08 05:57:55;;;;;;;2.05;0.90;;;8.70;99.90;;;;;;5013095;28;20089;-79
2023/11/08 06:00:22;;;;;;;1.73;1.10;;;8.60;99.90;;;;;;5008464;28;20657;-79
2023/11/08 06:02:49;;;;;;;4.57;0.90;;;8.60;99.90;;;;;;5004229;28;20509;-79
2023/11/08 06:05:16;;;;;;;1.75;1.27;;;8.60;99.90;;;;;;5021985;28;20037;-79
2023/11/08 06:07:44;;;;;;;2.60;1.00;;;8.60;99.90;;;;;;5017527;28;20062;-79
2023/11/08 06:10:11;;;;;;;2.90;0.88;;;8.60;99.90;;;;;;5022525;28;20431;-78
2023/11/08 06:12:38;;;;;;;3.78;1.60;;;8.60;99.90;;;;;;5015262;28;20057;-78
2023/11/08 06:15:05;;;;;;;2.40;1.10;;;8.60;99.90;;;;;;5008525;28;20132;-79
2023/11/08 06:17:32;;;;;;;1.85;0.80;;;8.60;99.90;;;;;;5018401;28;20058;-79
2023/11/08 06:19:59;;;;;;;7.47;1.58;;;8.60;99.90;;;;;;5006430;28;20061;-79
2023/11/08 06:22:26;;;;;;;1.48;1.23;;;8.60;99.90;;;;;;5015127;28;20053;-79
2023/11/08 06:24:53;;;;;;;1.40;0.75;;;8.60;99.90;;;;;;5013213;28;20050;-79
2023/11/08 06:27:19;;;;;;;1.73;0.80;;;8.60;99.90;;;;;;5011065;28;20445;-79
2023/11/08 06:29:46;;;;;;;3.13;0.90;;;8.60;99.90;;;;;;5006583;28;20042;-77
2023/11/08 06:32:13;;;;;;;1.88;1.10;;;8.60;99.90;;;;;;5017907;28;20041;-79
2023/11/08 06:34:42;;;;;;;2.17;0.65;;;8.60;99.90;;;;;;5016277;28;20053;-78
2023/11/08 06:37:10;;;;;;;4.25;0.90;;;8.60;99.90;;;;;;5017528;28;20637;-79
2023/11/08 06:39:37;;;;;;;2.47;1.10;;;8.60;99.90;;;;;;5011590;28;20046;-79
2023/11/08 06:42:05;;;;;;;4.00;0.90;;;8.60;99.90;;;;;;5005244;28;20128;-79
2023/11/08 06:44:32;;;;;;;5.22;1.08;;;8.60;99.90;;;;;;4994876;28;20078;-79
2023/11/08 06:46:59;;;;;;;3.10;0.85;;;8.60;99.90;;;;;;5006597;28;20111;-79
2023/11/08 06:49:26;;;;;;;4.75;0.95;;;8.60;99.90;;;;;;5012345;28;20104;-79
2023/11/08 06:51:53;;;;;;;2.38;0.70;;;8.60;99.90;;;;;;5010980;28;20465;-78
2023/11/08 06:54:20;;;;;;;4.75;1.10;;;8.70;99.90;;;;;;5012870;28;20409;-79
2023/11/08 06:56:46;;;;;;;3.05;0.80;;;8.70;99.90;;;;;;5008443;28;20054;-79
2023/11/08 06:59:13;;;;;;;1.90;0.80;;;8.70;99.90;;;;;;5011484;28;20068;-79
2023/11/08 07:01:41;;;;;;;1.60;1.08;;;8.70;99.90;;;;;;5003563;28;20050;-79
2023/11/08 07:04:08;;;;;;;4.25;1.00;;;8.70;99.90;;;;;;5020162;28;20041;-79
2023/11/08 07:06:35;;;;;;;2.95;1.00;;;8.70;99.90;;;;;;5000304;28;20564;-79
2023/11/08 07:09:02;;;;;;;2.95;1.10;;;8.70;99.90;;;;;;5013382;28;20037;-79
2023/11/08 07:11:29;;;;;;;5.22;1.92;;;8.70;99.90;;;;;;5012969;28;20054;-78
2023/11/08 07:13:56;;;;;;;6.25;1.95;;;8.70;99.90;;;;;;5019470;28;20526;-78
2023/11/08 07:16:22;;;;;;;8.07;2.45;;;8.80;99.90;;;;;;5016290;28;20522;-79
2023/11/08 07:18:49;;;;;;;5.82;2.00;;;8.80;99.90;;;;;;5002699;28;20061;-79
2023/11/08 07:21:20;;;;;;;2.22;1.00;;;8.80;99.90;;;;;;5018126;28;20050;-79
2023/11/08 07:23:47;;;;;;;5.28;1.42;;;8.90;99.90;;;;;;5014847;28;20049;-80
2023/11/08 07:26:15;;;;;;;3.30;1.05;;;8.90;99.90;;;;;;5016428;28;20057;-79
2023/11/08 07:28:46;;;;;;;2.75;1.15;;;8.90;99.90;;;;;;5001002;28;20050;-79
2023/11/08 07:31:13;;;;;;;1.70;0.90;;;9.00;99.90;;;;;;5014871;28;20042;-79
2023/11/08 07:33:41;;;;;;;3.85;0.93;;;9.00;99.90;;;;;;5015352;28;20042;-79
2023/11/08 07:36:08;;;;;;;2.17;0.90;;;9.10;99.90;;;;;;5017293;28;20077;-78
2023/11/08 07:38:35;;;;;;;4.30;1.23;;;9.10;99.90;;;;;;4998065;28;20050;-79
2023/11/08 07:41:02;;;;;;;5.45;1.13;;;9.10;99.90;;;;;;5016888;28;20046;-78
2023/11/08 07:43:30;;;;;;;4.35;1.00;;;9.10;99.90;;;;;;4999885;28;20054;-79
2023/11/08 07:46:00;;;;;;;3.15;1.10;;;9.20;99.90;;;;;;5014585;28;20046;-79
2023/11/08 07:48:27;;;;;;;4.00;0.90;;;9.20;99.90;;;;;;4994642;28;20085;-77
2023/11/08 07:50:54;;;;;;;2.80;1.00;;;9.20;99.90;;;;;;5009500;28;20046;-78
2023/11/08 07:53:21;;;;;;;6.35;1.83;;;9.20;99.90;;;;;;5009914;28;20046;-77
2023/11/08 07:55:49;;;;;;;1.70;1.00;;;9.20;99.90;;;;;;5006806;28;20592;-78
2023/11/08 07:58:19;;;;;;;3.47;1.40;;;9.30;99.90;;;;;;5016389;28;20493;-78
2023/11/08 08:00:46;;;;;;;2.33;1.13;;;9.30;99.90;;;;;;5017463;28;20549;-78
2023/11/08 08:03:14;;;;;;;3.55;1.00;;;9.30;99.90;;;;;;5020403;28;20052;-78
2023/11/08 08:05:41;;;;;;;4.88;1.10;;;9.40;99.90;;;;;;4996045;28;20100;-78
2023/11/08 08:08:09;;;;;;;2.70;1.05;;;9.40;99.90;;;;;;5011791;28;20087;-78
2023/11/08 08:10:36;;;;;;;1.42;0.88;;;9.40;99.90;;;;;;5007573;28;20042;-78
2023/11/08 08:13:04;;;;;;;5.50;1.45;;;9.50;99.90;;;;;;5007743;28;20109;-77
2023/11/08 08:15:31;;;;;;;2.42;0.95;;;9.50;99.90;;;;;;5013547;28;20049;-78
2023/11/08 08:18:01;;;;;;;2.72;1.30;;;9.50;99.90;;;;;;5012647;28;20054;-78
2023/11/08 08:20:28;;;;;;;4.53;1.50;;;9.60;99.90;;;;;;5012967;28;20081;-78
2023/11/08 08:22:56;;;;;;;4.22;0.85;;;9.60;99.90;;;;;;5008849;28;20050;-78
2023/11/08 08:25:23;;;;;;;1.08;0.70;;;9.60;99.90;;;;;;5012878;28;20077;-78
2023/11/08 08:27:50;;;;;;;3.20;1.30;;;9.60;99.90;;;;;;5006163;28;20060;-78
2023/11/08 08:30:17;;;;;;;2.35;1.00;;;9.60;99.90;;;;;;5021255;28;20412;-78
2023/11/08 08:32:44;;;;;;;3.17;1.27;;;9.60;99.90;;;;;;5001549;28;20607;-79
2023/11/08 08:35:12;;;;;;;3.47;0.88;;;9.60;99.90;;;;;;5008223;28;20478;-78
2023/11/08 08:37:39;;;;;;;3.50;1.17;;;9.60;99.90;;;;;;5008381;28;20502;-78
2023/11/08 08:40:10;;;;;;;4.25;1.20;;;9.60;99.90;;;;;;5018368;28;20490;-79
2023/11/08 08:42:39;;;;;;;1.95;0.77;;;9.60;99.90;;;;;;5021787;28;20104;-79
2023/11/08 08:45:08;;;;;;;8.07;1.20;;;9.50;99.90;;;;;;5019989;28;20101;-78
2023/11/08 08:47:39;;;;;;;3.55;1.00;;;9.60;99.90;;;;;;5014989;28;20054;-79
2023/11/08 08:50:12;;;;;;;2.70;0.88;;;9.50;99.90;;;;;;5002117;28;20052;-78
2023/11/08 08:52:39;;;;;;;2.15;1.00;;;9.50;99.90;;;;;;4996903;28;20054;-78
2023/11/08 08:55:08;;;;;;;2.25;1.17;;;9.50;99.90;;;;;;5024430;28;20056;-78
2023/11/08 08:57:35;;;;;;;2.92;1.30;;;9.50;99.90;;;;;;5020645;28;20049;-78
2023/11/08 09:00:03;;;;;;;3.15;1.00;;;9.50;99.90;;;;;;5004404;28;20114;-78
2023/11/08 09:02:30;;;;;;;6.65;1.10;;;9.50;99.90;;;;;;5010539;28;20076;-78
2023/11/08 09:04:57;;;;;;;4.10;1.00;;;9.50;99.90;;;;;;5008889;28;20056;-79
2023/11/08 09:07:24;;;;;;;6.00;1.33;;;9.50;99.90;;;;;;5008489;28;20046;-78
2023/11/08 09:09:50;;;;;;;3.78;1.10;;;9.50;99.90;;;;;;5019151;28;20045;-78
2023/11/08 09:12:17;;;;;;;3.30;1.00;;;9.50;99.90;;;;;;5021829;28;20497;-79
2023/11/08 09:14:51;;;;;;;2.65;0.90;;;9.50;99.90;;;;;;5015104;28;20049;-78
2023/11/08 09:17:19;;;;;;;1.92;1.27;;;9.40;99.90;;;;;;4997019;28;20088;-79
2023/11/08 09:19:46;;;;;;;3.80;1.02;;;9.40;99.90;;;;;;5009222;28;20549;-78
2023/11/08 09:22:13;;;;;;;1.83;0.70;;;9.50;99.90;;;;;;5012716;28;20077;-78
2023/11/08 09:24:40;;;;;;;2.35;1.00;;;9.50;99.90;;;;;;5022060;28;20104;-79
2023/11/08 09:27:07;;;;;;;1.17;0.73;;;9.50;99.90;;;;;;5020298;28;20046;-78
2023/11/08 09:29:33;;;;;;;2.58;0.93;;;9.50;99.90;;;;;;4991809;28;20502;-78
2023/11/08 09:32:03;;;;;;;2.00;0.90;;;9.50;99.90;;;;;;5014245;28;20137;-78
2023/11/08 09:34:32;;;;;;;1.83;0.73;;;9.50;99.90;;;;;;4997910;28;20046;-78
2023/11/08 09:37:00;;;;;;;5.53;1.02;;;9.60;99.90;;;;;;5013786;28;20497;-79
2023/11/08 09:39:28;;;;;;;2.55;1.50;;;9.60;99.90;;;;;;5004808;28;20049;-78
2023/11/08 09:41:58;;;;;;;5.28;1.15;;;9.60;99.90;;;;;;5015832;28;20081;-78
2023/11/08 09:44:26;;;;;;;5.22;1.05;;;9.60;99.90;;;;;;5014701;28;20046;-79
2023/11/08 09:46:54;;;;;;;2.67;1.38;;;9.60;99.90;;;;;;5012204;28;20047;-78
2023/11/08 09:49:23;;;;;;;2.92;0.95;;;9.70;99.90;;;;;;5008905;28;20050;-78
2023/11/08 09:51:53;;;;;;;3.00;1.13;;;9.70;99.90;;;;;;5019266;28;20069;-78
2023/11/08 09:54:20;;;;;;;3.30;1.05;;;9.80;99.90;;;;;;5021338;28;20049;-78
2023/11/08 09:56:47;;;;;;;2.88;1.00;;;9.80;99.90;;;;;;5000229;28;20050;-78
2023/11/08 09:59:15;;;;;;;6.68;1.33;;;9.90;99.90;;;;;;5002485;28;20049;-78
2023/11/08 10:01:45;;;;;;;3.38;1.50;;;9.90;99.90;;;;;;5009385;28;20497;-79
2023/11/08 10:04:16;;;;;;;3.30;1.40;;;10.00;99.90;;;;;;5008094;28;20489;-79
2023/11/08 10:06:50;;;;;;;3.05;1.30;;;10.00;99.90;;;;;;5018105;28;20045;-79
2023/11/08 10:09:28;;;;;;;3.67;1.33;;;10.00;99.90;;;;;;5021372;28;20041;-78
2023/11/08 10:11:55;;;;;;;5.50;1.73;;;10.10;99.90;;;;;;5014810;28;20197;-78
2023/11/08 10:14:37;;;;;;;3.53;1.40;;;10.20;99.90;;;;;;4997811;28;20041;-79
2023/11/08 10:17:04;;;;;;;2.47;1.30;;;10.30;99.90;;;;;;4991140;28;20047;-79
2023/11/08 10:19:41;;;;;;;5.50;1.50;;;10.50;99.90;;;;;;5012082;28;20075;-79
2023/11/08 10:22:20;;;;;;;5.03;1.48;;;10.60;99.90;;;;;;5023062;28;20462;-78
2023/11/08 10:25:01;;;;;;;3.55;1.70;;;10.70;99.90;;;;;;4994436;28;20085;-79
2023/11/08 10:27:30;;;;;;;5.53;1.60;;;10.80;99.90;;;;;;4993131;28;20174;-79
2023/11/08 10:30:23;;;;;;;4.30;1.50;;;10.80;99.90;;;;;;4997731;28;20298;-78
2023/11/08 10:32:50;;;;;;;4.60;1.40;;;10.80;99.90;;;;;;4987375;28;20055;-79
2023/11/08 10:35:21;;;;;;;9.32;2.38;;;10.80;99.90;;;;;;5007160;28;20122;-78
2023/11/08 10:37:49;;;;;;;6.97;1.92;;;10.90;99.90;;;;;;5016355;28;20054;-79
2023/11/08 10:40:17;;;;;;;4.43;1.23;;;10.90;99.90;;;;;;5017621;28;20422;-79
2023/11/08 10:42:52;;;;;;;3.33;1.30;;;11.00;99.90;;;;;;5012239;28;20402;-78
2023/11/08 10:45:20;;;;;;;2.63;0.98;;;11.00;99.90;;;;;;5010968;28;20478;-79
2023/11/08 10:47:48;;;;;;;4.10;1.10;;;11.10;99.90;;;;;;5004901;28;20496;-78
2023/11/08 10:50:16;;;;;;;2.40;1.15;;;11.20;99.90;;;;;;5027599;28;20057;-78
2023/11/08 10:52:44;;;;;;;2.85;0.70;;;11.20;99.90;;;;;;5023078;28;20092;-79
2023/11/08 10:55:11;;;;;;;2.30;1.00;;;11.20;99.90;;;;;;5020038;28;20047;-79
2023/11/08 10:57:42;;;;;;;4.07;0.90;;;11.20;99.90;;;;;;5016363;28;20054;-79
2023/11/08 11:00:09;;;;;;;3.47;0.77;;;11.30;99.90;;;;;;5011938;28;20685;-78
2023/11/08 11:02:45;;;;;;;2.10;0.85;;;11.30;99.90;;;;;;5018710;28;20049;-79
2023/11/08 11:05:22;;;;;;;3.88;0.90;;;11.40;99.90;;;;;;5024918;28;20046;-78
2023/11/08 11:07:52;;;;;;;2.05;0.70;;;11.40;99.90;;;;;;5021931;28;20095;-78
2023/11/08 11:10:19;;;;;;;2.83;1.13;;;11.40;99.90;;;;;;5008180;28;20084;-78
2023/11/08 11:13:07;;;;;;;2.28;1.05;;;11.40;99.90;;;;;;5020008;28;20145;-79
2023/11/08 11:15:49;;;;;;;2.75;0.90;;;11.30;99.90;;;;;;5008981;28;20134;-79
2023/11/08 11:18:20;;;;;;;4.10;1.90;;;11.30;99.90;;;;;;5015615;28;20115;-78
2023/11/08 11:20:58;;;;;;;4.25;0.90;;;11.30;99.90;;;;;;5002233;28;20128;-78
2023/11/08 11:23:34;;;;;;;2.42;0.90;;;11.20;99.90;;;;;;5019217;28;20048;-79
2023/11/08 11:26:04;;;;;;;2.92;1.00;;;11.20;99.90;;;;;;5000053;28;20046;-78
2023/11/08 11:28:46;;;;;;;2.58;0.95;;;11.20;99.90;;;;;;5015454;28;20136;-79
2023/11/08 11:31:40;;;;;;;2.03;0.80;;;11.20;99.90;;;;;;5026763;28;20517;-78
2023/11/08 11:34:20;;;;;;;1.92;0.63;;;11.20;99.90;;;;;;5003894;28;20092;-79
2023/11/08 11:37:10;;;;;;;4.28;0.90;;;11.10;99.90;;;;;;4997874;28;20077;-78
2023/11/08 11:39:40;;;;;;;1.15;0.70;;;11.10;99.90;;;;;;5017237;28;20581;-78
2023/11/08 11:42:16;;;;;;;1.45;0.85;;;11.10;99.90;;;;;;4994611;28;20108;-78
2023/11/08 11:45:00;;;;;;;1.67;0.70;;;11.10;99.90;;;;;;5013112;28;20050;-79
2023/11/08 11:47:28;;;;;;;2.08;0.82;;;11.20;99.90;;;;;;5020346;28;20718;-78
2023/11/08 11:49:59;;;;;;;3.13;0.70;;;11.20;99.90;;;;;;5020933;28;20129;-79
2023/11/08 11:52:26;;;;;;;1.80;0.77;;;11.20;99.90;;;;;;5020429;28;20390;-79
2023/11/08 11:54:55;;;;;;;1.88;0.98;;;11.20;99.90;;;;;;5013609;28;20617;-79
2023/11/08 11:57:24;;;;;;;1.67;0.70;;;11.20;99.90;;;;;;5011386;28;20136;-78
2023/11/08 11:59:58;;;;;;;6.30;1.42;;;11.20;99.90;;;;;;5012159;28;20050;-78
2023/11/08 12:02:29;;;;;;;2.25;0.80;;;11.20;99.90;;;;;;5023285;28;20581;-78
2023/11/08 12:04:58;;;;;;;2.88;0.80;;;11.30;99.90;;;;;;5019503;28;20052;-78
2023/11/08 12:07:26;;;;;;;1.83;0.90;;;11.30;99.90;;;;;;5017553;28;20041;-78
2023/11/08 12:09:53;;;;;;;3.20;0.77;;;11.30;99.90;;;;;;5011475;28;20096;-78
2023/11/08 12:12:30;;;;;;;4.78;0.90;;;11.40;99.90;;;;;;5011574;28;20109;-77
2023/11/08 12:14:57;;;;;;;2.10;1.00;;;11.40;99.90;;;;;;5023740;28;20050;-78
2023/11/08 12:17:26;;;;;;;2.28;0.75;;;11.40;99.90;;;;;;5007686;28;20086;-78
2023/11/08 12:19:54;;;;;;;2.85;0.90;;;11.50;99.90;;;;;;5003182;28;20433;-78
2023/11/08 12:22:21;;;;;;;3.20;0.85;;;11.50;99.90;;;;;;5014650;28;20050;-78
2023/11/08 12:24:48;;;;;;;3.92;0.90;;;11.50;99.90;;;;;;5010738;28;20084;-78
2023/11/08 12:27:16;;;;;;;4.90;0.82;;;11.60;99.90;;;;;;5009627;28;20780;-78
2023/11/08 12:29:44;;;;;;;3.40;0.90;;;11.60;99.90;;;;;;5024551;28;20053;-78
2023/11/08 12:32:11;;;;;;;3.63;1.23;;;11.60;99.90;;;;;;5028816;28;20095;-78
2023/11/08 12:34:40;;;;;;;4.47;1.00;;;11.60;99.90;;;;;;5018880;28;20489;-78
2023/11/08 12:37:08;;;;;;;4.78;1.08;;;11.60;99.90;;;;;;5003171;28;20077;-78
2023/11/08 12:39:35;;;;;;;3.67;1.30;;;11.60;99.90;;;;;;5021837;28;20120;-78
2023/11/08 12:42:13;;;;;;;2.13;0.80;;;11.70;99.90;;;;;;5007188;28;20046;-78
2023/11/08 12:44:50;;;;;;;2.92;1.10;;;11.70;99.90;;;;;;5020761;28;20053;-78
2023/11/08 12:47:17;;;;;;;3.17;0.93;;;11.70;99.90;;;;;;5017878;28;20050;-78
2023/11/08 12:49:44;;;;;;;7.65;0.85;;;11.80;99.90;;;;;;5015164;28;20046;-80
2023/11/08 12:52:12;;;;;;;0.85;0.82;;;11.80;99.90;;;;;;4996928;28;20050;-78
2023/11/08 12:54:39;;;;;;;2.28;0.80;;;11.80;99.90;;;;;;5008417;28;20533;-78
2023/11/08 12:57:06;;;;;;;4.22;0.93;;;11.80;99.90;;;;;;5011540;28;20046;-78
2023/11/08 12:59:42;;;;;;;2.40;1.05;;;11.80;99.90;;;;;;5016782;28;20062;-78
2023/11/08 13:02:10;;;;;;;4.32;0.85;;;11.70;99.90;;;;;;5009802;28;20123;-78